SWA2117 KSJC-KLAX
Flight info
| Callsign | SWA2117 |
|---|---|
| Flight time | 0h 51m |
| Altitude | 35000 |
| Route | SPTNS1 VLREE EBAYE BURGL IRNMN2 |
| Aircraft | B737/M-SADE2E3GIJ4RWZ/LB1D1 |
Departure
| Time | 2026-04-20 18:39 |
|---|---|
| Airport | Norman Y. Mineta San Jose International Airport (KSJC) |
Arrival
| Time | 2026-04-20 19:30 |
|---|---|
| Airport | Los Angeles International Airport (KLAX) |
| Time | Latitude | Longitude | Altitude | Speed | Heading |
|---|---|---|---|---|---|
| 2026-04-20 18:26 | 37.36622 | -121.92674 | 60 ft | 0 kts | 49° |
| 2026-04-20 18:32 | 37.36619 | -121.92679 | 54 ft | 3 kts | 49° |
| 2026-04-20 18:33 | 37.36601 | -121.92704 | 53 ft | 4 kts | 49° |
| 2026-04-20 18:33 | 37.36583 | -121.92728 | 53 ft | 4 kts | 33° |
| 2026-04-20 18:33 | 37.36564 | -121.92734 | 56 ft | 3 kts | 321° |
| 2026-04-20 18:33 | 37.36550 | -121.92719 | 58 ft | 1 kts | 319° |
| 2026-04-20 18:34 | 37.36549 | -121.92718 | 58 ft | 0 kts | 319° |
| 2026-04-20 18:35 | 37.36550 | -121.92719 | 58 ft | 1 kts | 319° |
| 2026-04-20 18:35 | 37.36588 | -121.92760 | 54 ft | 13 kts | 319° |
| 2026-04-20 18:36 | 37.36686 | -121.92868 | 54 ft | 22 kts | 319° |
| 2026-04-20 18:36 | 37.36800 | -121.92993 | 58 ft | 22 kts | 320° |
| 2026-04-20 18:36 | 37.36912 | -121.93115 | 55 ft | 21 kts | 318° |
| 2026-04-20 18:36 | 37.37018 | -121.93232 | 60 ft | 20 kts | 319° |
| 2026-04-20 18:37 | 37.37124 | -121.93348 | 52 ft | 20 kts | 319° |
| 2026-04-20 18:37 | 37.37224 | -121.93458 | 56 ft | 19 kts | 319° |
| 2026-04-20 18:37 | 37.37307 | -121.93561 | 59 ft | 14 kts | 288° |
| 2026-04-20 18:37 | 37.37323 | -121.93665 | 61 ft | 13 kts | 320° |
| 2026-04-20 18:38 | 37.37396 | -121.93746 | 56 ft | 15 kts | 319° |
| 2026-04-20 18:38 | 37.37481 | -121.93839 | 61 ft | 16 kts | 319° |
| 2026-04-20 18:38 | 37.37520 | -121.93954 | 54 ft | 16 kts | 240° |
| 2026-04-20 18:38 | 37.37426 | -121.93937 | 59 ft | 23 kts | 139° |
| 2026-04-20 18:39 | 37.37118 | -121.93601 | 58 ft | 95 kts | 139° |
| 2026-04-20 18:39 | 37.36457 | -121.92875 | 110 ft | 150 kts | 139° |
| 2026-04-20 18:39 | 37.35670 | -121.92033 | 841 ft | 150 kts | 139° |
| 2026-04-20 18:39 | 37.34866 | -121.91144 | 1545 ft | 162 kts | 139° |
| 2026-04-20 18:40 | 37.33968 | -121.90143 | 2011 ft | 182 kts | 143° |
| 2026-04-20 18:40 | 37.32932 | -121.89006 | 2272 ft | 213 kts | 142° |
| 2026-04-20 18:40 | 37.31739 | -121.87674 | 2524 ft | 242 kts | 140° |
| 2026-04-20 18:40 | 37.30479 | -121.86265 | 3420 ft | 242 kts | 142° |
| 2026-04-20 18:41 | 37.29203 | -121.84834 | 4204 ft | 249 kts | 140° |
| 2026-04-20 18:41 | 37.28036 | -121.83198 | 5073 ft | 254 kts | 134° |
| 2026-04-20 18:41 | 37.26930 | -121.81437 | 6064 ft | 261 kts | 133° |
| 2026-04-20 18:41 | 37.25815 | -121.79622 | 7152 ft | 263 kts | 133° |
| 2026-04-20 18:42 | 37.24703 | -121.77813 | 8338 ft | 262 kts | 133° |
| 2026-04-20 18:42 | 37.23581 | -121.76002 | 9415 ft | 264 kts | 134° |
| 2026-04-20 18:42 | 37.22441 | -121.74176 | 10410 ft | 269 kts | 134° |
| 2026-04-20 18:42 | 37.21227 | -121.72254 | 10806 ft | 296 kts | 134° |
| 2026-04-20 18:43 | 37.19882 | -121.70134 | 11118 ft | 322 kts | 134° |
| 2026-04-20 18:43 | 37.18466 | -121.67893 | 11878 ft | 332 kts | 133° |
| 2026-04-20 18:43 | 37.17038 | -121.65629 | 12803 ft | 336 kts | 133° |
| 2026-04-20 18:43 | 37.15576 | -121.63311 | 13731 ft | 342 kts | 134° |
| 2026-04-20 18:44 | 37.14088 | -121.60957 | 14532 ft | 347 kts | 134° |
| 2026-04-20 18:44 | 37.12576 | -121.58572 | 15380 ft | 351 kts | 134° |
| 2026-04-20 18:44 | 37.11048 | -121.56164 | 16182 ft | 357 kts | 135° |
| 2026-04-20 18:44 | 37.09492 | -121.53715 | 16982 ft | 362 kts | 135° |
| 2026-04-20 18:45 | 37.07913 | -121.51236 | 17792 ft | 366 kts | 135° |
| 2026-04-20 18:45 | 37.06304 | -121.48754 | 18603 ft | 366 kts | 139° |
| 2026-04-20 18:45 | 37.04483 | -121.46540 | 19256 ft | 366 kts | 145° |
| 2026-04-20 18:45 | 37.02535 | -121.44469 | 19892 ft | 370 kts | 147° |
| 2026-04-20 18:46 | 37.00533 | -121.42414 | 20517 ft | 375 kts | 147° |
| 2026-04-20 18:46 | 36.98496 | -121.40324 | 21140 ft | 381 kts | 147° |
| 2026-04-20 18:46 | 36.96445 | -121.38197 | 21781 ft | 385 kts | 147° |
| 2026-04-20 18:46 | 36.94377 | -121.36030 | 22387 ft | 390 kts | 147° |
| 2026-04-20 18:47 | 36.92288 | -121.33826 | 22968 ft | 395 kts | 147° |
| 2026-04-20 18:47 | 36.90178 | -121.31590 | 23557 ft | 400 kts | 147° |
| 2026-04-20 18:47 | 36.88053 | -121.29333 | 24070 ft | 404 kts | 147° |
| 2026-04-20 18:47 | 36.85896 | -121.27041 | 24557 ft | 408 kts | 147° |
| 2026-04-20 18:48 | 36.83730 | -121.24739 | 25086 ft | 411 kts | 147° |
| 2026-04-20 18:48 | 36.81571 | -121.22446 | 25576 ft | 414 kts | 146° |
| 2026-04-20 18:48 | 36.79364 | -121.20106 | 26045 ft | 418 kts | 146° |
| 2026-04-20 18:48 | 36.77135 | -121.17744 | 26498 ft | 422 kts | 146° |
| 2026-04-20 18:49 | 36.74888 | -121.15366 | 26943 ft | 426 kts | 146° |
| 2026-04-20 18:49 | 36.72623 | -121.12970 | 27411 ft | 428 kts | 146° |
| 2026-04-20 18:49 | 36.70340 | -121.10557 | 27846 ft | 432 kts | 146° |
| 2026-04-20 18:49 | 36.68040 | -121.08128 | 28267 ft | 435 kts | 146° |
| 2026-04-20 18:50 | 36.65721 | -121.05679 | 28682 ft | 439 kts | 145° |
| 2026-04-20 18:50 | 36.63383 | -121.03214 | 29080 ft | 442 kts | 145° |
| 2026-04-20 18:50 | 36.61028 | -121.00735 | 29482 ft | 445 kts | 145° |
| 2026-04-20 18:50 | 36.58646 | -120.98264 | 29850 ft | 447 kts | 146° |
| 2026-04-20 18:51 | 36.56237 | -120.95809 | 30213 ft | 449 kts | 146° |
| 2026-04-20 18:51 | 36.53801 | -120.93345 | 30557 ft | 451 kts | 146° |
| 2026-04-20 18:51 | 36.51369 | -120.90887 | 31023 ft | 449 kts | 146° |
| 2026-04-20 18:51 | 36.48959 | -120.88448 | 31569 ft | 446 kts | 146° |
| 2026-04-20 18:52 | 36.46560 | -120.86017 | 32135 ft | 442 kts | 145° |
| 2026-04-20 18:52 | 36.44187 | -120.83612 | 32644 ft | 440 kts | 145° |
| 2026-04-20 18:52 | 36.41814 | -120.81209 | 33089 ft | 439 kts | 145° |
| 2026-04-20 18:52 | 36.39457 | -120.78823 | 33532 ft | 438 kts | 145° |
| 2026-04-20 18:53 | 36.37101 | -120.76441 | 33995 ft | 436 kts | 145° |
| 2026-04-20 18:53 | 36.34755 | -120.74068 | 34390 ft | 434 kts | 145° |
| 2026-04-20 18:53 | 36.32417 | -120.71708 | 34734 ft | 434 kts | 145° |
| 2026-04-20 18:53 | 36.30079 | -120.69348 | 35024 ft | 434 kts | 145° |
| 2026-04-20 18:54 | 36.25352 | -120.64588 | 35040 ft | 439 kts | 145° |
| 2026-04-20 18:54 | 36.20634 | -120.59837 | 35044 ft | 434 kts | 145° |
| 2026-04-20 18:55 | 36.15999 | -120.55178 | 35050 ft | 431 kts | 145° |
| 2026-04-20 18:55 | 36.11340 | -120.50504 | 35041 ft | 431 kts | 145° |
| 2026-04-20 18:56 | 36.06675 | -120.45833 | 35046 ft | 431 kts | 145° |
| 2026-04-20 18:56 | 36.02009 | -120.41166 | 35055 ft | 432 kts | 145° |
| 2026-04-20 18:57 | 35.97334 | -120.36498 | 35038 ft | 432 kts | 145° |
| 2026-04-20 18:57 | 35.92658 | -120.31833 | 35047 ft | 432 kts | 145° |
| 2026-04-20 18:58 | 35.88777 | -120.27969 | 35043 ft | 432 kts | 145° |
| 2026-04-20 18:58 | 35.83908 | -120.23676 | 35050 ft | 429 kts | 152° |
| 2026-04-20 18:59 | 35.78780 | -120.19906 | 35048 ft | 429 kts | 153° |
| 2026-04-20 18:59 | 35.73660 | -120.16115 | 35029 ft | 430 kts | 152° |
| 2026-04-20 19:00 | 35.68544 | -120.12266 | 35044 ft | 431 kts | 152° |
| 2026-04-20 19:00 | 35.63432 | -120.08414 | 35040 ft | 431 kts | 152° |
| 2026-04-20 19:01 | 35.58314 | -120.04548 | 35022 ft | 432 kts | 152° |
| 2026-04-20 19:01 | 35.53185 | -120.00677 | 35038 ft | 432 kts | 152° |
| 2026-04-20 19:02 | 35.48055 | -119.96813 | 35033 ft | 433 kts | 152° |
| 2026-04-20 19:02 | 35.42918 | -119.92950 | 35012 ft | 433 kts | 152° |
| 2026-04-20 19:03 | 35.37785 | -119.89095 | 35022 ft | 433 kts | 152° |
| 2026-04-20 19:03 | 35.32644 | -119.85240 | 35022 ft | 433 kts | 152° |
| 2026-04-20 19:04 | 35.27561 | -119.81354 | 34991 ft | 435 kts | 148° |
| 2026-04-20 19:04 | 35.22727 | -119.76879 | 35019 ft | 436 kts | 145° |
| 2026-04-20 19:05 | 35.17964 | -119.72279 | 35001 ft | 436 kts | 145° |
| 2026-04-20 19:05 | 35.13171 | -119.67746 | 34999 ft | 436 kts | 146° |
| 2026-04-20 19:06 | 35.10760 | -119.65493 | 34726 ft | 440 kts | 146° |
| 2026-04-20 19:06 | 35.08312 | -119.63216 | 34068 ft | 442 kts | 146° |
| 2026-04-20 19:06 | 35.05866 | -119.60942 | 33231 ft | 442 kts | 146° |
| 2026-04-20 19:06 | 35.03420 | -119.58669 | 32402 ft | 442 kts | 146° |
| 2026-04-20 19:07 | 35.00975 | -119.56398 | 31576 ft | 442 kts | 146° |
| 2026-04-20 19:07 | 34.98525 | -119.54124 | 30780 ft | 442 kts | 146° |
| 2026-04-20 19:07 | 34.96092 | -119.51865 | 30204 ft | 437 kts | 146° |
| 2026-04-20 19:07 | 34.93682 | -119.49630 | 29516 ft | 433 kts | 146° |
| 2026-04-20 19:08 | 34.91297 | -119.47421 | 28871 ft | 428 kts | 147° |
| 2026-04-20 19:08 | 34.86610 | -119.43199 | 27996 ft | 414 kts | 148° |
| 2026-04-20 19:08 | 34.84278 | -119.41127 | 27592 ft | 417 kts | 148° |
| 2026-04-20 19:09 | 34.81920 | -119.39031 | 27149 ft | 422 kts | 148° |
| 2026-04-20 19:09 | 34.79558 | -119.36923 | 26702 ft | 419 kts | 148° |
| 2026-04-20 19:09 | 34.77218 | -119.34831 | 26267 ft | 416 kts | 148° |
| 2026-04-20 19:09 | 34.74905 | -119.32764 | 25830 ft | 409 kts | 148° |
| 2026-04-20 19:10 | 34.72629 | -119.30756 | 25414 ft | 400 kts | 149° |
| 2026-04-20 19:10 | 34.70389 | -119.28803 | 24999 ft | 393 kts | 149° |
| 2026-04-20 19:10 | 34.68186 | -119.26885 | 24608 ft | 388 kts | 149° |
| 2026-04-20 19:10 | 34.65999 | -119.24979 | 24217 ft | 384 kts | 149° |
| 2026-04-20 19:11 | 34.63825 | -119.23090 | 23757 ft | 384 kts | 150° |
| 2026-04-20 19:11 | 34.61643 | -119.21209 | 23199 ft | 386 kts | 150° |
| 2026-04-20 19:11 | 34.59485 | -119.19353 | 22716 ft | 385 kts | 150° |
| 2026-04-20 19:11 | 34.57301 | -119.17473 | 22216 ft | 385 kts | 150° |
| 2026-04-20 19:12 | 34.55127 | -119.15587 | 21724 ft | 384 kts | 149° |
| 2026-04-20 19:12 | 34.52978 | -119.13684 | 21246 ft | 379 kts | 149° |
| 2026-04-20 19:12 | 34.50869 | -119.11805 | 20756 ft | 373 kts | 149° |
| 2026-04-20 19:12 | 34.48794 | -119.09960 | 20308 ft | 368 kts | 149° |
| 2026-04-20 19:13 | 34.46740 | -119.08140 | 19852 ft | 364 kts | 149° |
| 2026-04-20 19:13 | 34.44698 | -119.06336 | 19434 ft | 362 kts | 149° |
| 2026-04-20 19:13 | 34.42663 | -119.04554 | 18982 ft | 360 kts | 149° |
| 2026-04-20 19:13 | 34.40631 | -119.02797 | 18517 ft | 358 kts | 149° |
| 2026-04-20 19:14 | 34.38610 | -119.01052 | 18021 ft | 355 kts | 149° |
| 2026-04-20 19:14 | 34.36605 | -118.99318 | 17540 ft | 352 kts | 149° |
| 2026-04-20 19:14 | 34.34629 | -118.97609 | 17091 ft | 348 kts | 149° |
| 2026-04-20 19:14 | 34.32680 | -118.95882 | 16614 ft | 346 kts | 148° |
| 2026-04-20 19:15 | 34.30769 | -118.94139 | 16167 ft | 342 kts | 147° |
| 2026-04-20 19:15 | 34.28881 | -118.92413 | 15735 ft | 338 kts | 147° |
| 2026-04-20 19:15 | 34.27013 | -118.90714 | 15351 ft | 335 kts | 147° |
| 2026-04-20 19:15 | 34.25151 | -118.89023 | 14933 ft | 333 kts | 147° |
| 2026-04-20 19:16 | 34.23309 | -118.87335 | 14527 ft | 332 kts | 146° |
| 2026-04-20 19:16 | 34.21476 | -118.85647 | 14128 ft | 330 kts | 146° |
| 2026-04-20 19:16 | 34.19659 | -118.83976 | 13692 ft | 327 kts | 146° |
| 2026-04-20 19:16 | 34.17858 | -118.82322 | 13262 ft | 322 kts | 146° |
| 2026-04-20 19:17 | 34.16096 | -118.80681 | 12856 ft | 314 kts | 144° |
| 2026-04-20 19:17 | 34.14487 | -118.78982 | 12501 ft | 300 kts | 141° |
| 2026-04-20 19:17 | 34.12972 | -118.77304 | 12171 ft | 293 kts | 141° |
| 2026-04-20 19:17 | 34.11482 | -118.75650 | 11864 ft | 290 kts | 141° |
| 2026-04-20 19:18 | 34.09998 | -118.74016 | 11560 ft | 289 kts | 141° |
| 2026-04-20 19:18 | 34.08505 | -118.72385 | 11237 ft | 289 kts | 141° |
| 2026-04-20 19:18 | 34.07018 | -118.70768 | 10929 ft | 288 kts | 141° |
| 2026-04-20 19:18 | 34.05534 | -118.69155 | 10649 ft | 287 kts | 141° |
| 2026-04-20 19:19 | 34.04054 | -118.67531 | 10319 ft | 287 kts | 137° |
| 2026-04-20 19:19 | 34.02992 | -118.65497 | 9981 ft | 290 kts | 113° |
| 2026-04-20 19:19 | 34.02610 | -118.63152 | 9756 ft | 284 kts | 100° |
| 2026-04-20 19:19 | 34.02396 | -118.60769 | 9364 ft | 284 kts | 99° |
| 2026-04-20 19:20 | 34.02194 | -118.58415 | 9021 ft | 281 kts | 99° |
| 2026-04-20 19:20 | 34.01986 | -118.56091 | 8706 ft | 277 kts | 99° |
| 2026-04-20 19:20 | 34.01777 | -118.53801 | 8396 ft | 273 kts | 99° |
| 2026-04-20 19:20 | 34.01569 | -118.51553 | 8232 ft | 262 kts | 99° |
| 2026-04-20 19:21 | 34.01372 | -118.49439 | 8111 ft | 246 kts | 99° |
| 2026-04-20 19:21 | 34.01184 | -118.47435 | 7886 ft | 238 kts | 99° |
| 2026-04-20 19:21 | 34.01038 | -118.45455 | 7480 ft | 237 kts | 90° |
| 2026-04-20 19:21 | 34.01301 | -118.43492 | 7091 ft | 238 kts | 81° |
| 2026-04-20 19:22 | 34.01626 | -118.41569 | 6734 ft | 236 kts | 82° |
| 2026-04-20 19:22 | 34.01951 | -118.39631 | 6382 ft | 235 kts | 81° |
| 2026-04-20 19:22 | 34.02266 | -118.37713 | 6012 ft | 232 kts | 82° |
| 2026-04-20 19:22 | 34.02581 | -118.35818 | 5682 ft | 227 kts | 82° |
| 2026-04-20 19:23 | 34.02897 | -118.33977 | 5358 ft | 224 kts | 81° |
| 2026-04-20 19:23 | 34.03200 | -118.32128 | 5045 ft | 223 kts | 81° |
| 2026-04-20 19:23 | 34.03482 | -118.30351 | 5007 ft | 209 kts | 82° |
| 2026-04-20 19:23 | 34.03753 | -118.28684 | 4904 ft | 196 kts | 81° |
| 2026-04-20 19:24 | 34.04007 | -118.27096 | 4686 ft | 190 kts | 81° |
| 2026-04-20 19:24 | 34.04245 | -118.25538 | 4492 ft | 189 kts | 81° |
| 2026-04-20 19:24 | 34.04486 | -118.23972 | 4299 ft | 191 kts | 82° |
| 2026-04-20 19:24 | 34.04697 | -118.22384 | 4095 ft | 192 kts | 94° |
| 2026-04-20 19:25 | 34.04185 | -118.20970 | 3885 ft | 187 kts | 141° |
| 2026-04-20 19:25 | 34.02984 | -118.20430 | 3676 ft | 188 kts | 170° |
| 2026-04-20 19:25 | 34.01684 | -118.20213 | 3436 ft | 191 kts | 171° |
| 2026-04-20 19:25 | 34.00359 | -118.20002 | 3196 ft | 192 kts | 172° |
| 2026-04-20 19:26 | 33.99080 | -118.20245 | 2915 ft | 188 kts | 215° |
| 2026-04-20 19:26 | 33.98222 | -118.21366 | 2835 ft | 181 kts | 231° |
| 2026-04-20 19:26 | 33.97435 | -118.22554 | 2701 ft | 181 kts | 231° |
| 2026-04-20 19:26 | 33.96898 | -118.23903 | 2560 ft | 183 kts | 262° |
| 2026-04-20 19:27 | 33.96770 | -118.25408 | 2469 ft | 180 kts | 260° |
| 2026-04-20 19:27 | 33.96594 | -118.26911 | 2260 ft | 181 kts | 260° |
| 2026-04-20 19:27 | 33.96432 | -118.28404 | 2026 ft | 176 kts | 261° |
| 2026-04-20 19:27 | 33.96287 | -118.29810 | 1795 ft | 162 kts | 262° |
| 2026-04-20 19:28 | 33.96156 | -118.31075 | 1644 ft | 141 kts | 261° |
| 2026-04-20 19:28 | 33.96036 | -118.32225 | 1429 ft | 135 kts | 262° |
| 2026-04-20 19:28 | 33.95918 | -118.33361 | 1252 ft | 138 kts | 262° |
| 2026-04-20 19:28 | 33.95799 | -118.34505 | 1060 ft | 138 kts | 261° |
| 2026-04-20 19:29 | 33.95683 | -118.35640 | 871 ft | 135 kts | 263° |
| 2026-04-20 19:29 | 33.95571 | -118.36742 | 706 ft | 131 kts | 262° |
| 2026-04-20 19:29 | 33.95457 | -118.37830 | 504 ft | 132 kts | 263° |
| 2026-04-20 19:29 | 33.95347 | -118.38932 | 322 ft | 131 kts | 262° |
| 2026-04-20 19:30 | 33.95230 | -118.40018 | 166 ft | 129 kts | 263° |
| 2026-04-20 19:30 | 33.95122 | -118.41063 | 92 ft | 113 kts | 263° |
| 2026-04-20 19:30 | 33.95053 | -118.41744 | 93 ft | 52 kts | 263° |
| 2026-04-20 19:30 | 33.95018 | -118.42026 | 95 ft | 30 kts | 255° |
| 2026-04-20 19:31 | 33.94920 | -118.42219 | 93 ft | 19 kts | 224° |
| 2026-04-20 19:31 | 33.94817 | -118.42281 | 95 ft | 16 kts | 188° |
| 2026-04-20 19:31 | 33.94708 | -118.42267 | 93 ft | 16 kts | 154° |
| 2026-04-20 19:31 | 33.94692 | -118.42143 | 92 ft | 15 kts | 83° |
| 2026-04-20 19:32 | 33.94705 | -118.42018 | 94 ft | 15 kts | 83° |
| 2026-04-20 19:32 | 33.94717 | -118.41900 | 92 ft | 14 kts | 83° |
| 2026-04-20 19:32 | 33.94729 | -118.41786 | 92 ft | 13 kts | 83° |
| 2026-04-20 19:32 | 33.94739 | -118.41677 | 92 ft | 13 kts | 85° |
| 2026-04-20 19:33 | 33.94749 | -118.41571 | 95 ft | 13 kts | 83° |
| 2026-04-20 19:33 | 33.94761 | -118.41467 | 95 ft | 12 kts | 82° |
| 2026-04-20 19:33 | 33.94779 | -118.41369 | 93 ft | 12 kts | 79° |
| 2026-04-20 19:33 | 33.94794 | -118.41263 | 93 ft | 17 kts | 81° |
| 2026-04-20 19:34 | 33.94813 | -118.41082 | 94 ft | 24 kts | 83° |
| 2026-04-20 19:34 | 33.94832 | -118.40887 | 94 ft | 23 kts | 83° |
| 2026-04-20 19:34 | 33.94853 | -118.40701 | 93 ft | 22 kts | 83° |
| 2026-04-20 19:34 | 33.94871 | -118.40521 | 93 ft | 21 kts | 83° |
| 2026-04-20 19:35 | 33.94891 | -118.40348 | 93 ft | 21 kts | 80° |
| 2026-04-20 19:35 | 33.94905 | -118.40183 | 95 ft | 15 kts | 83° |
| 2026-04-20 19:35 | 33.94881 | -118.40080 | 92 ft | 14 kts | 155° |
| 2026-04-20 19:35 | 33.94811 | -118.40069 | 92 ft | 9 kts | 214° |
| 2026-04-20 19:36 | 33.94793 | -118.40085 | 92 ft | 1 kts | 217° |
| 2026-04-20 19:36 | 33.94791 | -118.40086 | 93 ft | 0 kts | 217° |